sensor_id;sensor_type;location;lat;lon;timestamp;pressure;altitude;pressure_sealevel;temperature;humidity
75745;BME280;74462;51.366;-0.222;2024-02-26T00:00:17;99294.48;;;7.91;78.78
75745;BME280;74462;51.366;-0.222;2024-02-26T00:01:22;99304.77;;;7.92;79.12
75745;BME280;74462;51.366;-0.222;2024-02-26T00:02:26;99306.65;;;7.91;79.29
75745;BME280;74462;51.366;-0.222;2024-02-26T00:03:31;99304.94;;;7.89;79.35
75745;BME280;74462;51.366;-0.222;2024-02-26T00:04:38;99308.55;;;7.90;79.32
75745;BME280;74462;51.366;-0.222;2024-02-26T00:05:42;99307.31;;;7.88;79.25
75745;BME280;74462;51.366;-0.222;2024-02-26T00:06:47;99311.46;;;7.89;79.33
75745;BME280;74462;51.366;-0.222;2024-02-26T00:07:53;99311.69;;;7.88;79.06
75745;BME280;74462;51.366;-0.222;2024-02-26T00:08:59;99309.80;;;7.82;79.01
75745;BME280;74462;51.366;-0.222;2024-02-26T00:10:07;99317.41;;;7.86;79.36
75745;BME280;74462;51.366;-0.222;2024-02-26T00:11:11;99311.89;;;7.85;79.39
75745;BME280;74462;51.366;-0.222;2024-02-26T00:12:16;99318.60;;;7.83;79.19
75745;BME280;74462;51.366;-0.222;2024-02-26T00:13:20;99321.61;;;7.83;79.44
75745;BME280;74462;51.366;-0.222;2024-02-26T00:14:25;99321.90;;;7.87;79.42
75745;BME280;74462;51.366;-0.222;2024-02-26T00:15:29;99329.08;;;7.86;79.52
75745;BME280;74462;51.366;-0.222;2024-02-26T00:16:34;99326.79;;;7.86;79.14
75745;BME280;74462;51.366;-0.222;2024-02-26T00:17:38;99324.00;;;7.85;79.32
75745;BME280;74462;51.366;-0.222;2024-02-26T00:18:43;99326.16;;;7.83;79.36
75745;BME280;74462;51.366;-0.222;2024-02-26T00:19:47;99324.02;;;7.83;79.26
75745;BME280;74462;51.366;-0.222;2024-02-26T00:20:52;99331.70;;;7.88;79.47
75745;BME280;74462;51.366;-0.222;2024-02-26T00:21:56;99328.29;;;7.89;79.25
75745;BME280;74462;51.366;-0.222;2024-02-26T00:23:01;99333.51;;;7.89;78.84
75745;BME280;74462;51.366;-0.222;2024-02-26T00:24:06;99336.30;;;7.88;79.20
75745;BME280;74462;51.366;-0.222;2024-02-26T00:25:10;99334.06;;;7.87;78.61
75745;BME280;74462;51.366;-0.222;2024-02-26T00:26:15;99331.16;;;7.88;78.62
75745;BME280;74462;51.366;-0.222;2024-02-26T00:27:20;99340.38;;;7.86;78.45
75745;BME280;74462;51.366;-0.222;2024-02-26T00:28:24;99337.78;;;7.87;78.32
75745;BME280;74462;51.366;-0.222;2024-02-26T00:29:30;99336.16;;;7.86;78.40
75745;BME280;74462;51.366;-0.222;2024-02-26T00:30:35;99337.89;;;7.88;78.49
75745;BME280;74462;51.366;-0.222;2024-02-26T00:31:40;99341.69;;;7.87;78.35
75745;BME280;74462;51.366;-0.222;2024-02-26T00:32:44;99340.41;;;7.84;78.22
75745;BME280;74462;51.366;-0.222;2024-02-26T00:33:49;99342.09;;;7.81;78.25
75745;BME280;74462;51.366;-0.222;2024-02-26T00:34:53;99347.39;;;7.85;78.31
75745;BME280;74462;51.366;-0.222;2024-02-26T00:35:57;99349.73;;;7.82;78.11
75745;BME280;74462;51.366;-0.222;2024-02-26T00:37:02;99353.55;;;7.85;78.34
75745;BME280;74462;51.366;-0.222;2024-02-26T00:38:07;99351.87;;;7.84;78.21
75745;BME280;74462;51.366;-0.222;2024-02-26T00:39:12;99352.98;;;7.82;78.26
75745;BME280;74462;51.366;-0.222;2024-02-26T00:40:17;99355.36;;;7.83;78.41
75745;BME280;74462;51.366;-0.222;2024-02-26T00:41:22;99354.39;;;7.80;77.97
75745;BME280;74462;51.366;-0.222;2024-02-26T00:42:26;99355.86;;;7.81;78.02
75745;BME280;74462;51.366;-0.222;2024-02-26T00:43:31;99359.27;;;7.78;77.76
75745;BME280;74462;51.366;-0.222;2024-02-26T00:44:35;99357.99;;;7.81;78.20
75745;BME280;74462;51.366;-0.222;2024-02-26T00:45:40;99361.86;;;7.85;78.27
75745;BME280;74462;51.366;-0.222;2024-02-26T00:46:44;99360.57;;;7.82;78.45
75745;BME280;74462;51.366;-0.222;2024-02-26T00:47:48;99363.96;;;7.83;78.44
75745;BME280;74462;51.366;-0.222;2024-02-26T00:48:53;99362.48;;;7.84;77.92
75745;BME280;74462;51.366;-0.222;2024-02-26T00:49:57;99357.12;;;7.85;77.76
75745;BME280;74462;51.366;-0.222;2024-02-26T00:51:02;99364.02;;;7.87;78.16
75745;BME280;74462;51.366;-0.222;2024-02-26T00:52:08;99365.16;;;7.86;77.95
75745;BME280;74462;51.366;-0.222;2024-02-26T00:53:13;99371.29;;;7.86;78.04
75745;BME280;74462;51.366;-0.222;2024-02-26T00:54:17;99368.89;;;7.85;77.58
75745;BME280;74462;51.366;-0.222;2024-02-26T00:55:21;99365.89;;;7.86;77.79
75745;BME280;74462;51.366;-0.222;2024-02-26T00:56:26;99372.19;;;7.86;77.72
75745;BME280;74462;51.366;-0.222;2024-02-26T00:57:31;99366.55;;;7.82;77.27
75745;BME280;74462;51.366;-0.222;2024-02-26T00:58:35;99374.14;;;7.76;77.39
75745;BME280;74462;51.366;-0.222;2024-02-26T00:59:40;99375.10;;;7.79;77.48
75745;BME280;74462;51.366;-0.222;2024-02-26T01:00:44;99378.16;;;7.79;77.44
75745;BME280;74462;51.366;-0.222;2024-02-26T01:01:49;99379.35;;;7.81;77.68
75745;BME280;74462;51.366;-0.222;2024-02-26T01:02:53;99384.88;;;7.83;77.88
75745;BME280;74462;51.366;-0.222;2024-02-26T01:03:57;99376.50;;;7.81;77.47
75745;BME280;74462;51.366;-0.222;2024-02-26T01:05:02;99380.17;;;7.84;77.79
75745;BME280;74462;51.366;-0.222;2024-02-26T01:06:07;99382.15;;;7.81;77.23
75745;BME280;74462;51.366;-0.222;2024-02-26T01:07:11;99384.87;;;7.81;77.37
75745;BME280;74462;51.366;-0.222;2024-02-26T01:08:16;99386.38;;;7.81;77.29
75745;BME280;74462;51.366;-0.222;2024-02-26T01:09:20;99384.24;;;7.84;77.65
75745;BME280;74462;51.366;-0.222;2024-02-26T01:10:25;99388.75;;;7.81;77.09
75745;BME280;74462;51.366;-0.222;2024-02-26T01:11:29;99397.50;;;7.84;77.24
75745;BME280;74462;51.366;-0.222;2024-02-26T01:12:34;99398.52;;;7.80;77.19
75745;BME280;74462;51.366;-0.222;2024-02-26T01:13:38;99396.48;;;7.79;77.29
75745;BME280;74462;51.366;-0.222;2024-02-26T01:14:43;99397.20;;;7.77;77.14
75745;BME280;74462;51.366;-0.222;2024-02-26T01:15:47;99396.52;;;7.79;77.54
75745;BME280;74462;51.366;-0.222;2024-02-26T01:16:52;99402.98;;;7.76;77.39
75745;BME280;74462;51.366;-0.222;2024-02-26T01:17:57;99405.01;;;7.79;77.10
75745;BME280;74462;51.366;-0.222;2024-02-26T01:19:02;99406.87;;;7.78;77.25
75745;BME280;74462;51.366;-0.222;2024-02-26T01:20:08;99408.77;;;7.78;77.38
75745;BME280;74462;51.366;-0.222;2024-02-26T01:21:13;99411.05;;;7.76;77.09
75745;BME280;74462;51.366;-0.222;2024-02-26T01:22:17;99417.05;;;7.78;77.35
75745;BME280;74462;51.366;-0.222;2024-02-26T01:23:22;99416.88;;;7.78;77.32
75745;BME280;74462;51.366;-0.222;2024-02-26T01:24:26;99412.52;;;7.82;77.28
75745;BME280;74462;51.366;-0.222;2024-02-26T01:25:31;99416.53;;;7.84;77.18
75745;BME280;74462;51.366;-0.222;2024-02-26T01:26:35;99419.70;;;7.82;77.27
75745;BME280;74462;51.366;-0.222;2024-02-26T01:27:40;99425.02;;;7.86;76.89
75745;BME280;74462;51.366;-0.222;2024-02-26T01:28:47;99426.41;;;7.87;77.00
75745;BME280;74462;51.366;-0.222;2024-02-26T01:29:52;99423.20;;;7.87;77.22
75745;BME280;74462;51.366;-0.222;2024-02-26T01:30:56;99426.66;;;7.88;76.89
75745;BME280;74462;51.366;-0.222;2024-02-26T01:32:01;99430.82;;;7.85;77.04
75745;BME280;74462;51.366;-0.222;2024-02-26T01:33:08;99426.31;;;7.82;77.00
75745;BME280;74462;51.366;-0.222;2024-02-26T01:34:13;99432.45;;;7.82;76.86
75745;BME280;74462;51.366;-0.222;2024-02-26T01:35:18;99433.84;;;7.76;77.09
75745;BME280;74462;51.366;-0.222;2024-02-26T01:36:23;99439.52;;;7.80;76.95
75745;BME280;74462;51.366;-0.222;2024-02-26T01:37:28;99440.09;;;7.77;76.88
75745;BME280;74462;51.366;-0.222;2024-02-26T01:38:33;99447.06;;;7.81;76.81
75745;BME280;74462;51.366;-0.222;2024-02-26T01:39:38;99446.50;;;7.81;77.18
75745;BME280;74462;51.366;-0.222;2024-02-26T01:40:44;99443.47;;;7.77;76.69
75745;BME280;74462;51.366;-0.222;2024-02-26T01:41:49;99444.50;;;7.78;76.66
75745;BME280;74462;51.366;-0.222;2024-02-26T01:42:55;99452.84;;;7.75;76.65
75745;BME280;74462;51.366;-0.222;2024-02-26T01:43:59;99453.45;;;7.72;76.37
75745;BME280;74462;51.366;-0.222;2024-02-26T01:45:05;99456.61;;;7.75;76.60
75745;BME280;74462;51.366;-0.222;2024-02-26T01:46:12;99454.98;;;7.79;76.61
75745;BME280;74462;51.366;-0.222;2024-02-26T01:47:18;99460.99;;;7.79;76.45
75745;BME280;74462;51.366;-0.222;2024-02-26T01:48:22;99465.58;;;7.81;76.65
75745;BME280;74462;51.366;-0.222;2024-02-26T01:49:27;99463.98;;;7.75;76.72
75745;BME280;74462;51.366;-0.222;2024-02-26T01:50:31;99468.61;;;7.75;76.86
75745;BME280;74462;51.366;-0.222;2024-02-26T01:51:37;99475.30;;;7.75;76.59
75745;BME280;74462;51.366;-0.222;2024-02-26T01:52:44;99473.08;;;7.76;76.58
75745;BME280;74462;51.366;-0.222;2024-02-26T01:53:49;99476.19;;;7.75;76.26
75745;BME280;74462;51.366;-0.222;2024-02-26T01:54:54;99479.30;;;7.78;76.22
75745;BME280;74462;51.366;-0.222;2024-02-26T01:55:59;99483.38;;;7.80;76.52
75745;BME280;74462;51.366;-0.222;2024-02-26T01:57:04;99481.25;;;7.78;76.79
75745;BME280;74462;51.366;-0.222;2024-02-26T01:58:10;99486.61;;;7.75;76.70
75745;BME280;74462;51.366;-0.222;2024-02-26T01:59:15;99484.54;;;7.76;76.28
75745;BME280;74462;51.366;-0.222;2024-02-26T02:00:21;99481.30;;;7.79;76.25
75745;BME280;74462;51.366;-0.222;2024-02-26T02:01:29;99485.11;;;7.80;76.30
75745;BME280;74462;51.366;-0.222;2024-02-26T02:02:34;99493.59;;;7.78;76.21
75745;BME280;74462;51.366;-0.222;2024-02-26T02:03:39;99493.73;;;7.77;76.13
75745;BME280;74462;51.366;-0.222;2024-02-26T02:04:44;99487.99;;;7.75;76.03
75745;BME280;74462;51.366;-0.222;2024-02-26T02:05:49;99493.48;;;7.73;75.61
75745;BME280;74462;51.366;-0.222;2024-02-26T02:06:54;99500.83;;;7.72;75.77
75745;BME280;74462;51.366;-0.222;2024-02-26T02:07:59;99500.13;;;7.74;76.31
75745;BME280;74462;51.366;-0.222;2024-02-26T02:09:03;99506.61;;;7.77;76.39
75745;BME280;74462;51.366;-0.222;2024-02-26T02:10:10;99504.27;;;7.79;76.30
75745;BME280;74462;51.366;-0.222;2024-02-26T02:11:15;99506.59;;;7.77;75.83
75745;BME280;74462;51.366;-0.222;2024-02-26T02:12:20;99509.87;;;7.76;75.93
75745;BME280;74462;51.366;-0.222;2024-02-26T02:13:25;99510.40;;;7.74;75.78
75745;BME280;74462;51.366;-0.222;2024-02-26T02:14:30;99512.85;;;7.76;75.88
75745;BME280;74462;51.366;-0.222;2024-02-26T02:15:34;99520.70;;;7.77;75.91
75745;BME280;74462;51.366;-0.222;2024-02-26T02:16:39;99523.23;;;7.76;75.81
75745;BME280;74462;51.366;-0.222;2024-02-26T02:17:43;99519.91;;;7.74;75.86
75745;BME280;74462;51.366;-0.222;2024-02-26T02:18:48;99525.55;;;7.76;75.97
75745;BME280;74462;51.366;-0.222;2024-02-26T02:19:53;99527.63;;;7.79;76.19
75745;BME280;74462;51.366;-0.222;2024-02-26T02:20:57;99534.99;;;7.82;75.80
75745;BME280;74462;51.366;-0.222;2024-02-26T02:22:04;99536.73;;;7.82;76.01
75745;BME280;74462;51.366;-0.222;2024-02-26T02:23:08;99536.97;;;7.77;76.02
75745;BME280;74462;51.366;-0.222;2024-02-26T02:24:13;99530.70;;;7.78;75.58
75745;BME280;74462;51.366;-0.222;2024-02-26T02:25:17;99537.52;;;7.79;75.35
75745;BME280;74462;51.366;-0.222;2024-02-26T02:26:22;99541.43;;;7.81;75.59
75745;BME280;74462;51.366;-0.222;2024-02-26T02:27:26;99540.80;;;7.80;75.57
75745;BME280;74462;51.366;-0.222;2024-02-26T02:28:32;99540.91;;;7.78;75.40
75745;BME280;74462;51.366;-0.222;2024-02-26T02:29:37;99543.41;;;7.76;75.60
75745;BME280;74462;51.366;-0.222;2024-02-26T02:30:41;99544.91;;;7.77;75.40
75745;BME280;74462;51.366;-0.222;2024-02-26T02:31:46;99547.02;;;7.75;75.55
75745;BME280;74462;51.366;-0.222;2024-02-26T02:32:50;99549.30;;;7.74;75.50
75745;BME280;74462;51.366;-0.222;2024-02-26T02:33:55;99555.52;;;7.75;75.41
75745;BME280;74462;51.366;-0.222;2024-02-26T02:35:00;99554.82;;;7.75;75.16
75745;BME280;74462;51.366;-0.222;2024-02-26T02:36:05;99560.02;;;7.72;75.34
75745;BME280;74462;51.366;-0.222;2024-02-26T02:37:13;99564.76;;;7.75;75.60
75745;BME280;74462;51.366;-0.222;2024-02-26T02:38:17;99569.17;;;7.72;75.08
75745;BME280;74462;51.366;-0.222;2024-02-26T02:39:22;99559.77;;;7.71;75.39
75745;BME280;74462;51.366;-0.222;2024-02-26T02:40:26;99567.65;;;7.76;75.29
75745;BME280;74462;51.366;-0.222;2024-02-26T02:41:31;99570.30;;;7.74;75.13
75745;BME280;74462;51.366;-0.222;2024-02-26T02:42:35;99573.64;;;7.72;75.19
75745;BME280;74462;51.366;-0.222;2024-02-26T02:43:40;99571.83;;;7.71;75.27
75745;BME280;74462;51.366;-0.222;2024-02-26T02:44:44;99572.01;;;7.66;74.96
75745;BME280;74462;51.366;-0.222;2024-02-26T02:45:49;99579.27;;;7.68;75.17
75745;BME280;74462;51.366;-0.222;2024-02-26T02:46:53;99578.52;;;7.71;75.13
75745;BME280;74462;51.366;-0.222;2024-02-26T02:47:58;99580.67;;;7.74;75.89
75745;BME280;74462;51.366;-0.222;2024-02-26T02:49:02;99588.02;;;7.73;75.24
75745;BME280;74462;51.366;-0.222;2024-02-26T02:50:08;99590.42;;;7.76;75.44
75745;BME280;74462;51.366;-0.222;2024-02-26T02:51:13;99587.62;;;7.72;74.65
75745;BME280;74462;51.366;-0.222;2024-02-26T02:52:17;99587.43;;;7.74;74.89
75745;BME280;74462;51.366;-0.222;2024-02-26T02:53:22;99590.36;;;7.75;75.00
75745;BME280;74462;51.366;-0.222;2024-02-26T02:54:26;99598.30;;;7.71;74.69
75745;BME280;74462;51.366;-0.222;2024-02-26T02:55:30;99597.41;;;7.73;75.03
75745;BME280;74462;51.366;-0.222;2024-02-26T02:56:35;99594.69;;;7.74;75.07
75745;BME280;74462;51.366;-0.222;2024-02-26T02:57:39;99601.91;;;7.74;74.70
75745;BME280;74462;51.366;-0.222;2024-02-26T02:58:45;99602.77;;;7.70;74.59
75745;BME280;74462;51.366;-0.222;2024-02-26T02:59:50;99611.17;;;7.75;74.93
75745;BME280;74462;51.366;-0.222;2024-02-26T03:00:55;99602.77;;;7.72;74.87
75745;BME280;74462;51.366;-0.222;2024-02-26T03:01:59;99604.13;;;7.75;74.47
75745;BME280;74462;51.366;-0.222;2024-02-26T03:03:04;99609.41;;;7.73;74.74
75745;BME280;74462;51.366;-0.222;2024-02-26T03:04:09;99612.05;;;7.71;74.82
75745;BME280;74462;51.366;-0.222;2024-02-26T03:05:13;99612.60;;;7.69;74.75
75745;BME280;74462;51.366;-0.222;2024-02-26T03:06:18;99607.70;;;7.70;74.92
75745;BME280;74462;51.366;-0.222;2024-02-26T03:07:24;99617.38;;;7.71;74.31
75745;BME280;74462;51.366;-0.222;2024-02-26T03:08:28;99620.95;;;7.71;74.47
75745;BME280;74462;51.366;-0.222;2024-02-26T03:09:33;99612.38;;;7.69;74.26
75745;BME280;74462;51.366;-0.222;2024-02-26T03:10:37;99623.52;;;7.69;74.62
75745;BME280;74462;51.366;-0.222;2024-02-26T03:11:42;99617.90;;;7.73;74.33
75745;BME280;74462;51.366;-0.222;2024-02-26T03:12:46;99619.15;;;7.73;74.51
75745;BME280;74462;51.366;-0.222;2024-02-26T03:13:51;99620.56;;;7.71;74.19
75745;BME280;74462;51.366;-0.222;2024-02-26T03:14:56;99622.56;;;7.68;74.00
75745;BME280;74462;51.366;-0.222;2024-02-26T03:16:06;99619.88;;;7.68;74.11
75745;BME280;74462;51.366;-0.222;2024-02-26T03:17:10;99626.09;;;7.66;74.14
75745;BME280;74462;51.366;-0.222;2024-02-26T03:18:15;99633.98;;;7.67;74.12
75745;BME280;74462;51.366;-0.222;2024-02-26T03:19:19;99626.17;;;7.65;74.07
75745;BME280;74462;51.366;-0.222;2024-02-26T03:20:24;99631.73;;;7.64;73.48
75745;BME280;74462;51.366;-0.222;2024-02-26T03:21:28;99634.84;;;7.69;73.74
75745;BME280;74462;51.366;-0.222;2024-02-26T03:22:33;99643.19;;;7.65;73.87
75745;BME280;74462;51.366;-0.222;2024-02-26T03:23:38;99639.54;;;7.66;73.61
75745;BME280;74462;51.366;-0.222;2024-02-26T03:24:42;99636.29;;;7.63;73.88
75745;BME280;74462;51.366;-0.222;2024-02-26T03:25:47;99641.77;;;7.66;73.91
75745;BME280;74462;51.366;-0.222;2024-02-26T03:26:51;99649.02;;;7.64;73.51
75745;BME280;74462;51.366;-0.222;2024-02-26T03:27:56;99649.88;;;7.63;73.82
75745;BME280;74462;51.366;-0.222;2024-02-26T03:29:00;99656.59;;;7.67;73.46
75745;BME280;74462;51.366;-0.222;2024-02-26T03:30:07;99656.20;;;7.67;73.53
75745;BME280;74462;51.366;-0.222;2024-02-26T03:31:12;99657.68;;;7.67;73.47
75745;BME280;74462;51.366;-0.222;2024-02-26T03:32:16;99661.86;;;7.65;73.61
75745;BME280;74462;51.366;-0.222;2024-02-26T03:33:21;99664.25;;;7.68;73.79
75745;BME280;74462;51.366;-0.222;2024-02-26T03:34:25;99670.64;;;7.68;73.64
75745;BME280;74462;51.366;-0.222;2024-02-26T03:35:30;99666.79;;;7.69;73.48
75745;BME280;74462;51.366;-0.222;2024-02-26T03:36:34;99670.06;;;7.68;73.46
75745;BME280;74462;51.366;-0.222;2024-02-26T03:37:39;99671.19;;;7.68;73.68
75745;BME280;74462;51.366;-0.222;2024-02-26T03:38:43;99673.95;;;7.66;73.55
75745;BME280;74462;51.366;-0.222;2024-02-26T03:39:48;99676.38;;;7.67;73.43
75745;BME280;74462;51.366;-0.222;2024-02-26T03:40:52;99680.06;;;7.67;73.44
75745;BME280;74462;51.366;-0.222;2024-02-26T03:41:57;99675.14;;;7.67;73.46
75745;BME280;74462;51.366;-0.222;2024-02-26T03:43:01;99680.48;;;7.64;72.99
75745;BME280;74462;51.366;-0.222;2024-02-26T03:44:07;99681.59;;;7.62;73.47
75745;BME280;74462;51.366;-0.222;2024-02-26T03:45:13;99683.30;;;7.60;73.39
75745;BME280;74462;51.366;-0.222;2024-02-26T03:46:17;99683.17;;;7.62;73.23
75745;BME280;74462;51.366;-0.222;2024-02-26T03:47:22;99689.94;;;7.59;73.02
75745;BME280;74462;51.366;-0.222;2024-02-26T03:48:26;99693.48;;;7.61;73.78
75745;BME280;74462;51.366;-0.222;2024-02-26T03:49:31;99694.04;;;7.59;73.68
75745;BME280;74462;51.366;-0.222;2024-02-26T03:50:35;99698.02;;;7.62;73.24
75745;BME280;74462;51.366;-0.222;2024-02-26T03:51:40;99700.13;;;7.64;73.64
75745;BME280;74462;51.366;-0.222;2024-02-26T03:52:44;99701.17;;;7.62;73.49
75745;BME280;74462;51.366;-0.222;2024-02-26T03:53:49;99703.78;;;7.64;73.39
75745;BME280;74462;51.366;-0.222;2024-02-26T03:54:53;99704.84;;;7.65;73.43
75745;BME280;74462;51.366;-0.222;2024-02-26T03:55:58;99707.73;;;7.64;73.60
75745;BME280;74462;51.366;-0.222;2024-02-26T03:57:07;99707.56;;;7.64;73.24
75745;BME280;74462;51.366;-0.222;2024-02-26T03:58:13;99706.83;;;7.60;72.98
75745;BME280;74462;51.366;-0.222;2024-02-26T03:59:23;99712.02;;;7.63;73.19
75745;BME280;74462;51.366;-0.222;2024-02-26T04:00:26;99712.54;;;7.60;72.83
75745;BME280;74462;51.366;-0.222;2024-02-26T04:01:33;99715.45;;;7.58;72.89
75745;BME280;74462;51.366;-0.222;2024-02-26T04:02:37;99722.67;;;7.54;72.71
75745;BME280;74462;51.366;-0.222;2024-02-26T04:03:42;99717.74;;;7.58;72.79
75745;BME280;74462;51.366;-0.222;2024-02-26T04:04:46;99727.98;;;7.56;72.46
75745;BME280;74462;51.366;-0.222;2024-02-26T04:05:51;99722.75;;;7.55;72.66
75745;BME280;74462;51.366;-0.222;2024-02-26T04:06:55;99731.19;;;7.54;72.74
75745;BME280;74462;51.366;-0.222;2024-02-26T04:08:00;99734.16;;;7.56;72.54
75745;BME280;74462;51.366;-0.222;2024-02-26T04:09:04;99734.31;;;7.54;72.87
75745;BME280;74462;51.366;-0.222;2024-02-26T04:10:11;99740.23;;;7.56;73.04
75745;BME280;74462;51.366;-0.222;2024-02-26T04:11:16;99741.16;;;7.53;72.94
75745;BME280;74462;51.366;-0.222;2024-02-26T04:12:22;99741.16;;;7.53;72.64
75745;BME280;74462;51.366;-0.222;2024-02-26T04:13:26;99748.77;;;7.53;72.68
75745;BME280;74462;51.366;-0.222;2024-02-26T04:14:31;99751.27;;;7.52;72.76
75745;BME280;74462;51.366;-0.222;2024-02-26T04:15:35;99751.66;;;7.54;73.00
75745;BME280;74462;51.366;-0.222;2024-02-26T04:16:40;99752.64;;;7.55;72.56
75745;BME280;74462;51.366;-0.222;2024-02-26T04:17:44;99765.08;;;7.54;72.74
75745;BME280;74462;51.366;-0.222;2024-02-26T04:18:49;99761.39;;;7.54;72.79
75745;BME280;74462;51.366;-0.222;2024-02-26T04:19:53;99763.28;;;7.53;72.73
75745;BME280;74462;51.366;-0.222;2024-02-26T04:20:58;99770.17;;;7.52;72.64
75745;BME280;74462;51.366;-0.222;2024-02-26T04:22:03;99766.70;;;7.54;72.86
75745;BME280;74462;51.366;-0.222;2024-02-26T04:23:08;99778.92;;;7.51;72.23
75745;BME280;74462;51.366;-0.222;2024-02-26T04:24:12;99775.63;;;7.51;72.61
75745;BME280;74462;51.366;-0.222;2024-02-26T04:25:17;99776.17;;;7.50;72.64
75745;BME280;74462;51.366;-0.222;2024-02-26T04:26:22;99781.17;;;7.48;72.44
75745;BME280;74462;51.366;-0.222;2024-02-26T04:27:26;99772.42;;;7.49;72.47
75745;BME280;74462;51.366;-0.222;2024-02-26T04:28:31;99775.25;;;7.49;72.38
75745;BME280;74462;51.366;-0.222;2024-02-26T04:29:35;99776.31;;;7.51;71.95
75745;BME280;74462;51.366;-0.222;2024-02-26T04:30:39;99781.64;;;7.53;72.37
75745;BME280;74462;51.366;-0.222;2024-02-26T04:31:44;99787.84;;;7.48;72.15
75745;BME280;74462;51.366;-0.222;2024-02-26T04:32:49;99777.93;;;7.46;72.03
75745;BME280;74462;51.366;-0.222;2024-02-26T04:33:54;99788.80;;;7.45;72.10
75745;BME280;74462;51.366;-0.222;2024-02-26T04:34:58;99797.65;;;7.49;72.35
75745;BME280;74462;51.366;-0.222;2024-02-26T04:36:04;99793.77;;;7.51;72.09
75745;BME280;74462;51.366;-0.222;2024-02-26T04:37:08;99792.02;;;7.47;72.16
75745;BME280;74462;51.366;-0.222;2024-02-26T04:38:13;99800.93;;;7.46;71.94
75745;BME280;74462;51.366;-0.222;2024-02-26T04:39:17;99796.41;;;7.45;71.89
75745;BME280;74462;51.366;-0.222;2024-02-26T04:40:22;99801.80;;;7.44;72.05
75745;BME280;74462;51.366;-0.222;2024-02-26T04:41:27;99808.05;;;7.47;71.92
75745;BME280;74462;51.366;-0.222;2024-02-26T04:42:31;99811.31;;;7.46;72.30
75745;BME280;74462;51.366;-0.222;2024-02-26T04:43:36;99803.62;;;7.43;72.21
75745;BME280;74462;51.366;-0.222;2024-02-26T04:44:44;99818.29;;;7.43;71.30
75745;BME280;74462;51.366;-0.222;2024-02-26T04:45:48;99815.05;;;7.46;71.88
75745;BME280;74462;51.366;-0.222;2024-02-26T04:46:53;99825.30;;;7.48;72.27
75745;BME280;74462;51.366;-0.222;2024-02-26T04:47:59;99822.61;;;7.46;71.97
75745;BME280;74462;51.366;-0.222;2024-02-26T04:49:03;99823.94;;;7.47;71.88
75745;BME280;74462;51.366;-0.222;2024-02-26T04:50:09;99835.89;;;7.50;71.52
75745;BME280;74462;51.366;-0.222;2024-02-26T04:51:14;99836.36;;;7.51;71.92
75745;BME280;74462;51.366;-0.222;2024-02-26T04:52:19;99834.58;;;7.53;71.65
75745;BME280;74462;51.366;-0.222;2024-02-26T04:53:23;99843.04;;;7.51;71.48
75745;BME280;74462;51.366;-0.222;2024-02-26T04:54:28;99843.75;;;7.55;71.45
75745;BME280;74462;51.366;-0.222;2024-02-26T04:55:32;99842.91;;;7.53;71.59
75745;BME280;74462;51.366;-0.222;2024-02-26T04:56:37;99846.73;;;7.49;71.45
75745;BME280;74462;51.366;-0.222;2024-02-26T04:57:41;99842.36;;;7.47;71.13
75745;BME280;74462;51.366;-0.222;2024-02-26T04:58:45;99852.92;;;7.49;71.29
75745;BME280;74462;51.366;-0.222;2024-02-26T04:59:50;99850.39;;;7.46;70.92
75745;BME280;74462;51.366;-0.222;2024-02-26T05:00:54;99857.17;;;7.47;71.34
75745;BME280;74462;51.366;-0.222;2024-02-26T05:01:59;99856.34;;;7.48;71.66
75745;BME280;74462;51.366;-0.222;2024-02-26T05:03:04;99859.69;;;7.49;71.43
75745;BME280;74462;51.366;-0.222;2024-02-26T05:04:09;99870.21;;;7.45;71.36
75745;BME280;74462;51.366;-0.222;2024-02-26T05:05:14;99870.11;;;7.47;71.22
75745;BME280;74462;51.366;-0.222;2024-02-26T05:06:19;99870.70;;;7.48;71.41
75745;BME280;74462;51.366;-0.222;2024-02-26T05:07:23;99873.83;;;7.42;71.23
75745;BME280;74462;51.366;-0.222;2024-02-26T05:08:28;99873.88;;;7.42;71.17
75745;BME280;74462;51.366;-0.222;2024-02-26T05:09:34;99880.29;;;7.41;71.22
75745;BME280;74462;51.366;-0.222;2024-02-26T05:10:39;99884.62;;;7.42;71.06
75745;BME280;74462;51.366;-0.222;2024-02-26T05:11:44;99889.30;;;7.43;71.23
75745;BME280;74462;51.366;-0.222;2024-02-26T05:12:48;99887.46;;;7.42;70.99
75745;BME280;74462;51.366;-0.222;2024-02-26T05:13:53;99891.70;;;7.39;71.20
75745;BME280;74462;51.366;-0.222;2024-02-26T05:14:57;99895.14;;;7.45;71.34
75745;BME280;74462;51.366;-0.222;2024-02-26T05:16:02;99892.79;;;7.42;71.28
75745;BME280;74462;51.366;-0.222;2024-02-26T05:17:07;99897.38;;;7.43;71.37
75745;BME280;74462;51.366;-0.222;2024-02-26T05:18:11;99895.27;;;7.39;71.22
75745;BME280;74462;51.366;-0.222;2024-02-26T05:19:16;99901.89;;;7.40;71.18
75745;BME280;74462;51.366;-0.222;2024-02-26T05:20:21;99895.44;;;7.39;71.15
75745;BME280;74462;51.366;-0.222;2024-02-26T05:21:26;99910.44;;;7.41;70.81
75745;BME280;74462;51.366;-0.222;2024-02-26T05:22:30;99913.50;;;7.41;70.77
75745;BME280;74462;51.366;-0.222;2024-02-26T05:23:35;99912.13;;;7.40;70.77
75745;BME280;74462;51.366;-0.222;2024-02-26T05:24:40;99919.36;;;7.40;70.69
75745;BME280;74462;51.366;-0.222;2024-02-26T05:25:45;99920.68;;;7.42;70.73
75745;BME280;74462;51.366;-0.222;2024-02-26T05:26:51;99922.41;;;7.44;70.90
75745;BME280;74462;51.366;-0.222;2024-02-26T05:27:55;99927.67;;;7.45;70.79
75745;BME280;74462;51.366;-0.222;2024-02-26T05:29:00;99926.71;;;7.46;70.85
75745;BME280;74462;51.366;-0.222;2024-02-26T05:30:05;99936.66;;;7.45;70.73
75745;BME280;74462;51.366;-0.222;2024-02-26T05:31:13;99941.69;;;7.48;70.79
75745;BME280;74462;51.366;-0.222;2024-02-26T05:32:18;99932.88;;;7.46;70.73
75745;BME280;74462;51.366;-0.222;2024-02-26T05:33:23;99938.68;;;7.48;70.82
75745;BME280;74462;51.366;-0.222;2024-02-26T05:34:28;99948.60;;;7.48;70.53
75745;BME280;74462;51.366;-0.222;2024-02-26T05:35:33;99949.44;;;7.44;70.62
75745;BME280;74462;51.366;-0.222;2024-02-26T05:36:38;99949.27;;;7.46;70.53
75745;BME280;74462;51.366;-0.222;2024-02-26T05:37:42;99951.79;;;7.43;70.33
75745;BME280;74462;51.366;-0.222;2024-02-26T05:38:47;99954.25;;;7.44;70.67
75745;BME280;74462;51.366;-0.222;2024-02-26T05:39:51;99955.49;;;7.46;70.49
75745;BME280;74462;51.366;-0.222;2024-02-26T05:40:56;99957.16;;;7.45;70.40
75745;BME280;74462;51.366;-0.222;2024-02-26T05:42:01;99960.73;;;7.44;70.58
75745;BME280;74462;51.366;-0.222;2024-02-26T05:43:08;99966.09;;;7.46;70.30